Nouakchott, Mauritania
Current Conditions -  °F | °C
As of 9:30 AM on Monday 20 Oct 2014 (Local Time) from GQNN Reporting Station
Clear Clear  
Wind Chill: 81°   Ceiling: Unl
Heat Index: 82°   Visibility: 5mi
Dew Point: 63°   Wind: 7mph
Humidity: 54%   Direction: 360°N
Pressure: 29.88"   Gusts: NA
Location:  18.09°N, 15.98°W
Report Text: GQNN 200930Z 36006KT 330V030 8000 NSC 27/17 Q1012 NOSIG
Loading
Personal Weather Stations






























Interactive Weather Map
Tropical Storm Tracking
New forecast layout! Learn more

10-Day Weather Forecast

Advertisements
Track Severe Weather on mobile